createdAt,value
2019-02-21T00:02:03.924Z,67.85
2019-02-21T00:04:12.067Z,67.63
2019-02-21T00:06:19.881Z,68.03
2019-02-21T00:08:27.576Z,68.55
2019-02-21T00:10:35.316Z,68.33
2019-02-21T00:12:43.016Z,68.83
2019-02-21T00:14:50.649Z,68.57
2019-02-21T00:16:58.912Z,69.04
2019-02-21T00:19:06.817Z,69.46
2019-02-21T00:21:14.647Z,69.90
2019-02-21T00:23:22.438Z,70.45
2019-02-21T00:25:30.821Z,70.27
2019-02-21T00:27:38.694Z,71.09
2019-02-21T00:29:46.454Z,71.04
2019-02-21T00:31:54.148Z,71.39
2019-02-21T00:34:01.781Z,71.50
2019-02-21T00:36:09.585Z,71.65
2019-02-21T00:38:17.137Z,71.04
2019-02-21T00:40:24.909Z,71.18
2019-02-21T00:42:32.646Z,71.59
2019-02-21T00:44:40.316Z,71.83
2019-02-21T00:46:48.058Z,71.91
2019-02-21T00:48:55.737Z,72.25
2019-02-21T00:51:03.430Z,72.77
2019-02-21T00:53:11.390Z,72.82
2019-02-21T00:55:19.197Z,72.45
2019-02-21T00:57:27.480Z,72.46
2019-02-21T00:59:35.366Z,72.79
2019-02-21T01:01:43.156Z,72.30
2019-02-21T01:03:50.778Z,72.24
2019-02-21T01:05:58.608Z,72.55
2019-02-21T01:08:07.059Z,72.53
2019-02-21T01:10:14.643Z,73.35
2019-02-21T01:12:22.644Z,72.96
2019-02-21T01:14:30.602Z,73.12
2019-02-21T01:16:38.320Z,73.24
2019-02-21T01:18:45.821Z,72.81
2019-02-21T01:20:53.599Z,72.71
2019-02-21T01:23:01.278Z,73.53
2019-02-21T01:25:09.245Z,73.54
2019-02-21T01:27:17.109Z,73.54
2019-02-21T01:29:24.923Z,72.99
2019-02-21T01:31:32.584Z,73.63
2019-02-21T01:33:40.324Z,73.23
2019-02-21T01:35:48.072Z,72.94
2019-02-21T01:37:56.202Z,73.05
2019-02-21T01:40:03.958Z,73.11
2019-02-21T01:42:11.663Z,73.47
2019-02-21T01:44:19.539Z,72.99
2019-02-21T01:46:27.252Z,73.17
2019-02-21T01:48:34.688Z,73.62
2019-02-21T01:50:42.360Z,72.50
2019-02-21T01:52:50.018Z,74.09
2019-02-21T01:54:57.889Z,73.13
2019-02-21T01:57:05.614Z,73.81
2019-02-21T01:59:13.322Z,73.49
2019-02-21T02:01:21.178Z,73.30
2019-02-21T02:03:29.084Z,73.12
2019-02-21T02:05:37.030Z,72.86
2019-02-21T02:07:44.991Z,73.64
2019-02-21T02:09:52.523Z,73.41
2019-02-21T02:11:59.985Z,73.82
2019-02-21T02:14:07.802Z,73.53
2019-02-21T02:16:15.496Z,73.91
2019-02-21T02:18:23.363Z,72.93
2019-02-21T02:20:31.339Z,73.70
2019-02-21T02:22:39.156Z,73.49
2019-02-21T02:24:46.796Z,73.92
2019-02-21T02:26:54.561Z,73.47
2019-02-21T02:29:02.311Z,73.83
2019-02-21T02:31:22.026Z,73.98
2019-02-21T02:33:19.676Z,74.45
2019-02-21T02:35:27.309Z,74.40
2019-02-21T02:37:35.055Z,73.67
2019-02-21T02:39:42.659Z,73.24
2019-02-21T02:41:50.334Z,73.39
2019-02-21T02:43:57.759Z,73.68
2019-02-21T02:46:05.611Z,74.04
2019-02-21T02:48:13.352Z,74.52
2019-02-21T02:50:21.087Z,73.96
2019-02-21T02:52:28.685Z,74.42
2019-02-21T02:54:37.037Z,74.19
2019-02-21T02:56:44.824Z,73.69
2019-02-21T02:58:52.543Z,74.12
2019-02-21T03:01:00.127Z,74.58
2019-02-21T03:03:07.653Z,73.63
2019-02-21T03:05:15.325Z,74.37
2019-02-21T03:07:22.891Z,74.12
2019-02-21T03:09:30.814Z,74.14
2019-02-21T03:11:38.589Z,74.12
2019-02-21T03:13:46.353Z,74.38
2019-02-21T03:15:54.055Z,74.22
2019-02-21T03:18:01.961Z,74.52
2019-02-21T03:20:10.531Z,74.53
2019-02-21T03:22:18.316Z,73.75
2019-02-21T03:24:26.140Z,73.75
2019-02-21T03:26:33.923Z,73.86
2019-02-21T03:28:41.626Z,73.80
2019-02-21T03:30:49.406Z,73.67
2019-02-21T03:32:57.050Z,73.55
2019-02-21T03:35:05.028Z,74.19
2019-02-21T03:37:12.779Z,74.14
2019-02-21T03:39:20.473Z,73.60
2019-02-21T03:41:28.091Z,73.42
2019-02-21T03:43:35.983Z,73.81
2019-02-21T03:45:43.723Z,73.71
2019-02-21T03:47:51.350Z,73.73
2019-02-21T03:49:59.216Z,73.46
2019-02-21T03:52:06.929Z,73.66
2019-02-21T03:54:14.731Z,73.86
2019-02-21T03:56:22.586Z,74.00
2019-02-21T03:58:30.515Z,73.55
2019-02-21T04:00:38.369Z,73.64
2019-02-21T04:02:46.010Z,74.05
2019-02-21T04:04:53.795Z,73.58
2019-02-21T04:07:01.371Z,73.52
2019-02-21T04:09:10.986Z,73.83
2019-02-21T04:11:18.595Z,73.68
2019-02-21T04:13:26.357Z,73.89
2019-02-21T04:15:34.035Z,73.85
2019-02-21T04:17:41.916Z,73.85
2019-02-21T04:19:49.706Z,73.55
2019-02-21T04:21:57.513Z,73.79
2019-02-21T04:24:05.399Z,73.54
2019-02-21T04:26:13.124Z,74.02
2019-02-21T04:28:20.897Z,73.36
2019-02-21T04:30:28.693Z,74.41
2019-02-21T04:32:36.722Z,74.57
2019-02-21T04:34:44.598Z,74.64
2019-02-21T04:36:52.354Z,74.84
2019-02-21T04:39:00.082Z,75.07
2019-02-21T04:41:08.043Z,74.99
2019-02-21T04:43:16.088Z,75.90
2019-02-21T04:45:23.919Z,75.72
2019-02-21T04:47:31.656Z,75.86
2019-02-21T04:49:39.431Z,76.54
2019-02-21T04:51:47.381Z,76.81
2019-02-21T04:53:55.146Z,76.32
2019-02-21T04:56:03.000Z,77.13
2019-02-21T04:58:10.921Z,77.90
2019-02-21T05:00:19.035Z,77.55
2019-02-21T05:02:29.530Z,77.93
2019-02-21T05:04:37.020Z,78.25
2019-02-21T05:06:44.934Z,78.80
2019-02-21T05:08:52.785Z,79.49
2019-02-21T05:11:01.031Z,78.38
2019-02-21T05:13:09.442Z,78.21
2019-02-21T05:15:17.372Z,78.96
2019-02-21T05:17:25.707Z,78.84
2019-02-21T05:19:34.233Z,78.28
2019-02-21T05:21:42.784Z,78.10
2019-02-21T05:23:50.946Z,79.33
2019-02-21T05:25:58.908Z,78.89
2019-02-21T05:28:28.898Z,78.16
2019-02-21T05:30:36.787Z,78.11
2019-02-21T05:33:00.360Z,79.66
2019-02-21T05:35:31.445Z,79.11
2019-02-21T05:37:58.440Z,78.37
2019-02-21T05:40:24.057Z,80.12
2019-02-21T05:42:53.816Z,79.71
2019-02-21T05:45:18.871Z,79.57
2019-02-21T05:47:48.800Z,79.33
2019-02-21T05:50:28.089Z,79.91
2019-02-21T05:52:52.542Z,80.38
2019-02-21T05:55:18.211Z,80.56
2019-02-21T05:57:43.692Z,79.96
2019-02-21T06:00:09.242Z,80.54
2019-02-21T06:02:53.170Z,79.86
2019-02-21T06:05:10.365Z,79.52
2019-02-21T06:07:37.162Z,80.52
2019-02-21T06:10:00.154Z,80.48
2019-02-21T06:12:33.705Z,80.51
2019-02-21T06:15:04.435Z,80.57
2019-02-21T06:17:28.719Z,80.87
2019-02-21T06:19:43.585Z,81.18
2019-02-21T06:22:09.683Z,81.16
2019-02-21T06:24:21.679Z,81.73
2019-02-21T06:26:39.542Z,80.73
2019-02-21T06:29:06.730Z,81.25
2019-02-21T06:31:17.951Z,81.23
2019-02-21T06:33:28.225Z,80.96
2019-02-21T06:35:35.383Z,81.95
2019-02-21T06:37:43.160Z,81.89
2019-02-21T06:39:50.901Z,81.23
2019-02-21T06:42:00.146Z,81.51
2019-02-21T06:44:08.043Z,82.06
2019-02-21T06:46:15.920Z,81.77
2019-02-21T06:48:23.773Z,81.55
2019-02-21T06:50:31.497Z,81.77
2019-02-21T06:52:40.684Z,82.19
2019-02-21T06:54:48.793Z,81.72
2019-02-21T06:56:56.506Z,81.61
2019-02-21T06:59:04.308Z,80.33
2019-02-21T07:01:12.131Z,81.79
2019-02-21T07:03:19.917Z,81.78
2019-02-21T07:05:27.980Z,81.22
2019-02-21T07:07:35.781Z,81.44
2019-02-21T07:09:43.544Z,81.56
2019-02-21T07:11:51.190Z,81.77
2019-02-21T07:13:59.157Z,82.61
2019-02-21T07:16:07.053Z,81.45
2019-02-21T07:18:14.875Z,82.27
2019-02-21T07:20:22.643Z,81.90
2019-02-21T07:22:30.419Z,82.07
2019-02-21T07:24:38.863Z,82.30
2019-02-21T07:26:46.499Z,82.23
2019-02-21T07:28:54.247Z,81.82
2019-02-21T07:31:02.068Z,82.18
2019-02-21T07:33:09.857Z,82.56
2019-02-21T07:35:17.535Z,83.14
2019-02-21T07:37:25.322Z,82.94
2019-02-21T07:39:36.127Z,82.10
2019-02-21T07:41:42.665Z,82.94
2019-02-21T07:43:50.338Z,81.82
2019-02-21T07:45:58.253Z,83.07
2019-02-21T07:48:06.296Z,82.00
2019-02-21T07:50:14.206Z,83.31
2019-02-21T07:52:22.090Z,83.15
2019-02-21T07:54:29.902Z,83.38
2019-02-21T07:56:42.021Z,82.84
2019-02-21T07:58:47.066Z,82.95
2019-02-21T08:00:55.057Z,83.46
2019-02-21T08:03:03.000Z,83.70
2019-02-21T08:05:11.085Z,83.09
2019-02-21T08:07:18.985Z,82.92
2019-02-21T08:09:27.978Z,83.12
2019-02-21T08:11:36.004Z,83.54
2019-02-21T08:13:44.428Z,82.32
2019-02-21T08:15:52.230Z,82.35
2019-02-21T08:18:00.110Z,83.06
2019-02-21T08:20:09.705Z,83.64
2019-02-21T08:22:17.410Z,83.17
2019-02-21T08:24:25.267Z,82.29
2019-02-21T08:26:33.014Z,83.04
2019-02-21T08:28:40.951Z,83.47
2019-02-21T08:30:48.876Z,83.08
2019-02-21T08:33:21.458Z,83.35
2019-02-21T08:35:29.495Z,83.47
2019-02-21T08:37:37.212Z,82.25
2019-02-21T08:39:45.104Z,82.54
2019-02-21T08:41:55.114Z,83.86
2019-02-21T08:44:02.617Z,82.83
2019-02-21T08:46:10.356Z,83.80
2019-02-21T08:48:18.201Z,83.38
2019-02-21T08:50:26.044Z,83.16
2019-02-21T08:52:33.911Z,82.25
2019-02-21T08:54:41.658Z,83.51
2019-02-21T08:56:49.782Z,83.60
2019-02-21T08:58:57.526Z,83.39
2019-02-21T09:01:05.455Z,82.83
2019-02-21T09:03:13.394Z,83.22
2019-02-21T09:05:21.365Z,83.59
2019-02-21T09:07:29.068Z,83.76
2019-02-21T09:09:37.006Z,83.48
2019-02-21T09:11:44.684Z,83.81
2019-02-21T09:13:52.341Z,83.28
2019-02-21T09:16:00.089Z,83.36
2019-02-21T09:18:07.903Z,83.23
2019-02-21T09:20:16.083Z,83.41
2019-02-21T09:22:23.759Z,83.73
2019-02-21T09:24:39.152Z,83.65
2019-02-21T09:26:41.238Z,83.81
2019-02-21T09:28:49.118Z,84.04
2019-02-21T09:30:57.088Z,83.28
2019-02-21T09:33:04.979Z,83.42
2019-02-21T09:35:12.973Z,83.22
2019-02-21T09:37:20.806Z,83.54
2019-02-21T09:39:28.773Z,83.71
2019-02-21T09:41:36.481Z,83.43
2019-02-21T09:43:44.269Z,83.53
2019-02-21T09:45:52.177Z,83.84
2019-02-21T09:47:59.914Z,83.17
2019-02-21T09:50:08.273Z,83.39
2019-02-21T09:52:16.139Z,83.42
2019-02-21T09:54:24.145Z,83.01
2019-02-21T09:56:32.084Z,83.06
2019-02-21T09:58:39.878Z,83.39
2019-02-21T10:00:47.592Z,83.27
2019-02-21T10:02:56.711Z,83.85
2019-02-21T10:05:05.683Z,83.92
2019-02-21T10:07:13.449Z,83.86
2019-02-21T10:09:21.193Z,83.32
2019-02-21T10:11:29.023Z,83.74
2019-02-21T10:13:36.751Z,83.85
2019-02-21T10:15:46.973Z,83.60
2019-02-21T10:17:54.358Z,83.63
2019-02-21T10:20:04.139Z,83.60
2019-02-21T10:22:13.521Z,83.36
2019-02-21T10:24:21.199Z,83.26
2019-02-21T10:26:29.063Z,83.25
2019-02-21T10:28:36.955Z,83.21
2019-02-21T10:30:44.769Z,83.43
2019-02-21T10:32:52.563Z,83.62
2019-02-21T10:35:00.365Z,83.13
2019-02-21T10:37:08.094Z,83.65
2019-02-21T10:39:16.039Z,82.93
2019-02-21T10:41:23.761Z,83.45
2019-02-21T10:43:31.520Z,84.27
2019-02-21T10:45:47.476Z,83.33
2019-02-21T10:47:48.607Z,82.93
2019-02-21T10:49:56.426Z,83.04
2019-02-21T10:52:04.275Z,83.42
2019-02-21T10:54:12.260Z,83.66
2019-02-21T10:56:20.194Z,83.26
2019-02-21T10:58:27.952Z,83.05
2019-02-21T11:00:35.807Z,82.92
2019-02-21T11:02:43.788Z,82.27
2019-02-21T11:04:55.087Z,82.30
2019-02-21T11:07:01.904Z,83.42
2019-02-21T11:09:14.853Z,83.01
2019-02-21T11:11:22.610Z,83.24
2019-02-21T11:13:30.427Z,83.49
2019-02-21T11:15:38.202Z,82.54
2019-02-21T11:17:45.952Z,83.16
2019-02-21T11:19:53.739Z,83.12
2019-02-21T11:22:01.562Z,83.64
2019-02-21T11:24:09.503Z,82.83
2019-02-21T11:26:17.544Z,82.56
2019-02-21T11:28:25.240Z,82.55
2019-02-21T11:30:33.106Z,82.50
2019-02-21T11:32:40.891Z,83.29
2019-02-21T11:34:48.604Z,83.05
2019-02-21T11:36:56.280Z,83.04
2019-02-21T11:39:05.395Z,82.56
2019-02-21T11:41:13.335Z,82.93
2019-02-21T11:43:21.198Z,83.09
2019-02-21T11:45:28.847Z,82.69
2019-02-21T11:47:36.693Z,82.14
2019-02-21T11:49:44.348Z,82.29
2019-02-21T11:51:52.107Z,82.82
2019-02-21T11:54:00.035Z,82.72
2019-02-21T11:56:07.861Z,83.22
2019-02-21T11:58:15.473Z,83.41
2019-02-21T12:00:25.514Z,82.79
2019-02-21T12:02:38.867Z,83.05
2019-02-21T12:04:42.583Z,83.13
2019-02-21T12:06:50.378Z,82.71
2019-02-21T12:08:58.234Z,83.09
2019-02-21T12:11:06.000Z,83.58
2019-02-21T12:13:13.776Z,83.51
2019-02-21T12:15:21.582Z,83.87
2019-02-21T12:17:29.438Z,83.81
2019-02-21T12:19:37.259Z,83.52
2019-02-21T12:21:44.986Z,83.89
2019-02-21T12:23:52.709Z,83.82
2019-02-21T12:26:00.493Z,83.56
2019-02-21T12:28:08.415Z,83.82
2019-02-21T12:30:18.628Z,83.56
2019-02-21T12:32:26.290Z,83.89
2019-02-21T12:34:34.109Z,83.36
2019-02-21T12:36:41.642Z,84.01
2019-02-21T12:38:49.323Z,84.10
2019-02-21T12:40:57.058Z,83.65
2019-02-21T12:43:04.858Z,83.70
2019-02-21T12:45:15.806Z,83.96
2019-02-21T12:47:24.279Z,83.31
2019-02-21T12:49:32.709Z,83.40
2019-02-21T12:51:40.542Z,83.64
2019-02-21T12:53:48.676Z,84.00
2019-02-21T12:55:56.603Z,83.87
2019-02-21T12:58:04.522Z,83.72
2019-02-21T13:00:16.059Z,83.95
2019-02-21T13:02:23.910Z,83.92
2019-02-21T13:04:33.463Z,84.37
2019-02-21T13:06:41.486Z,83.71
2019-02-21T13:08:49.374Z,84.13
2019-02-21T13:10:57.347Z,84.24
2019-02-21T13:13:05.058Z,84.52
2019-02-21T13:15:14.198Z,84.02
2019-02-21T13:17:22.333Z,84.03
2019-02-21T13:19:30.115Z,84.02
2019-02-21T13:21:38.043Z,84.10
2019-02-21T13:23:45.817Z,83.82
2019-02-21T13:25:53.615Z,83.77
2019-02-21T13:28:01.511Z,83.83
2019-02-21T13:30:12.657Z,83.97
2019-02-21T13:32:20.433Z,83.37
2019-02-21T13:34:28.206Z,83.95
2019-02-21T13:36:36.186Z,83.83
2019-02-21T13:38:43.883Z,83.21
2019-02-21T13:40:51.774Z,83.41
2019-02-21T13:42:59.695Z,83.47
2019-02-21T13:45:08.400Z,83.62
2019-02-21T13:47:16.279Z,83.59
2019-02-21T13:49:24.152Z,82.61
2019-02-21T13:51:32.146Z,82.43
2019-02-21T13:53:39.982Z,82.39
2019-02-21T13:55:47.755Z,82.69
2019-02-21T13:57:55.609Z,82.93
2019-02-21T14:00:03.433Z,83.22
2019-02-21T14:02:11.200Z,83.02
2019-02-21T14:04:19.214Z,83.19
2019-02-21T14:06:27.468Z,83.17
2019-02-21T14:08:35.411Z,83.20
2019-02-21T14:10:43.067Z,83.34
2019-02-21T14:12:51.114Z,83.66
2019-02-21T14:14:58.873Z,83.89
2019-02-21T14:17:06.698Z,83.90
2019-02-21T14:19:14.639Z,83.97
2019-02-21T14:21:22.495Z,83.66
2019-02-21T14:23:30.502Z,82.98
2019-02-21T14:25:41.096Z,82.78
2019-02-21T14:27:47.795Z,82.75
2019-02-21T14:29:55.565Z,83.31
2019-02-21T14:32:03.338Z,83.42
2019-02-21T14:34:11.068Z,83.71
2019-02-21T14:36:19.368Z,82.96
2019-02-21T14:38:28.425Z,83.20
2019-02-21T14:40:36.561Z,83.00
2019-02-21T14:42:44.315Z,82.79
2019-02-21T14:44:52.237Z,82.59
2019-02-21T14:47:00.095Z,83.08
2019-02-21T14:49:08.166Z,83.38
2019-02-21T14:51:16.218Z,83.14
2019-02-21T14:53:24.264Z,83.31
2019-02-21T14:55:32.014Z,83.10
2019-02-21T14:57:41.204Z,83.79
2019-02-21T14:59:49.195Z,84.11
2019-02-21T15:01:57.643Z,83.60
2019-02-21T15:04:08.674Z,84.47
2019-02-21T15:06:26.831Z,83.95
2019-02-21T15:08:27.738Z,84.38
2019-02-21T15:10:35.724Z,84.25
2019-02-21T15:12:43.887Z,84.09
2019-02-21T15:14:51.902Z,84.01
2019-02-21T15:16:59.773Z,84.08
2019-02-21T15:19:07.854Z,83.99
2019-02-21T15:21:15.749Z,84.28
2019-02-21T15:23:23.626Z,84.17
2019-02-21T15:25:31.557Z,84.24
2019-02-21T15:27:39.897Z,83.95
2019-02-21T15:29:47.854Z,83.83
2019-02-21T15:31:55.704Z,84.21
2019-02-21T15:34:03.562Z,84.19
2019-02-21T15:36:11.856Z,84.18
2019-02-21T15:38:20.445Z,83.92
2019-02-21T15:40:28.387Z,84.30
2019-02-21T15:42:35.932Z,84.65
2019-02-21T15:44:43.944Z,84.86
2019-02-21T15:46:52.003Z,84.28
2019-02-21T15:49:02.098Z,84.79
2019-02-21T15:51:10.532Z,84.12
2019-02-21T15:53:18.287Z,83.84
2019-02-21T15:55:26.029Z,84.71
2019-02-21T15:57:34.155Z,83.87
2019-02-21T15:59:42.181Z,83.17
2019-02-21T16:01:50.179Z,84.21
2019-02-21T16:03:58.440Z,84.26
2019-02-21T16:06:06.191Z,84.43
2019-02-21T16:08:15.220Z,84.29
2019-02-21T16:10:23.673Z,83.92
2019-02-21T16:12:31.689Z,83.88
2019-02-21T16:14:39.637Z,84.47
2019-02-21T16:16:47.480Z,84.84
2019-02-21T16:18:55.261Z,84.23
2019-02-21T16:21:03.305Z,84.72
2019-02-21T16:23:11.568Z,84.65
2019-02-21T16:25:21.245Z,84.56
2019-02-21T16:27:29.116Z,84.99
2019-02-21T16:29:36.879Z,85.07
2019-02-21T16:31:44.572Z,85.35
2019-02-21T16:33:52.444Z,85.40
2019-02-21T16:36:00.830Z,84.88
2019-02-21T16:38:08.731Z,84.45
2019-02-21T16:40:17.005Z,84.45
2019-02-21T16:42:24.937Z,84.71
2019-02-21T16:44:32.943Z,85.12
2019-02-21T16:46:41.017Z,84.53
2019-02-21T16:48:48.700Z,84.87
2019-02-21T16:50:59.295Z,85.25
2019-02-21T16:53:07.460Z,85.30
2019-02-21T16:55:20.104Z,85.12
2019-02-21T16:57:28.568Z,84.74
2019-02-21T16:59:36.661Z,84.29
2019-02-21T17:01:44.704Z,84.35
2019-02-21T17:03:52.524Z,84.47
2019-02-21T17:06:00.712Z,84.58
2019-02-21T17:08:08.731Z,84.87
2019-02-21T17:10:16.747Z,84.97
2019-02-21T17:12:24.571Z,84.46
2019-02-21T17:14:32.429Z,85.01
2019-02-21T17:16:40.743Z,84.57
2019-02-21T17:18:48.895Z,85.21
2019-02-21T17:20:56.864Z,84.97
2019-02-21T17:23:04.648Z,84.31
2019-02-21T17:25:13.613Z,85.15
2019-02-21T17:27:21.406Z,83.75
2019-02-21T17:29:29.336Z,85.28
2019-02-21T17:31:37.394Z,84.70
2019-02-21T17:33:45.010Z,84.98
2019-02-21T17:35:52.790Z,84.51
2019-02-21T17:38:00.709Z,84.77
2019-02-21T17:40:10.705Z,83.16
2019-02-21T17:42:18.583Z,84.82
2019-02-21T17:44:26.313Z,83.66
2019-02-21T17:46:34.046Z,84.66
2019-02-21T17:48:42.191Z,84.89
2019-02-21T17:50:49.835Z,84.71
2019-02-21T17:52:58.079Z,83.84
2019-02-21T17:55:06.278Z,85.35
2019-02-21T17:57:14.138Z,84.59
2019-02-21T17:59:22.126Z,84.64
2019-02-21T18:01:30.258Z,85.65
2019-02-21T18:03:38.048Z,85.38
2019-02-21T18:05:45.841Z,84.62
2019-02-21T18:07:53.988Z,84.58
2019-02-21T18:10:01.856Z,84.99
2019-02-21T18:12:09.787Z,84.72
2019-02-21T18:14:17.349Z,84.38
2019-02-21T18:16:25.441Z,84.62
2019-02-21T18:18:33.279Z,84.60
2019-02-21T18:20:41.137Z,85.16
2019-02-21T18:22:48.852Z,84.54
2019-02-21T18:24:56.473Z,84.87
2019-02-21T18:27:04.295Z,84.57
2019-02-21T18:29:12.292Z,84.85
2019-02-21T18:31:20.460Z,85.26
2019-02-21T18:33:27.978Z,85.74
2019-02-21T18:35:35.682Z,84.67
2019-02-21T18:37:47.364Z,84.26
2019-02-21T18:39:54.961Z,85.22
2019-02-21T18:42:03.596Z,85.06
2019-02-21T18:44:12.233Z,85.27
2019-02-21T18:46:20.405Z,84.88
2019-02-21T18:48:28.155Z,85.18
2019-02-21T18:50:38.533Z,84.89
2019-02-21T18:52:45.385Z,84.95
2019-02-21T18:54:53.967Z,84.92
2019-02-21T18:57:02.404Z,84.99
2019-02-21T18:59:10.648Z,84.92
2019-02-21T19:01:19.272Z,84.72
2019-02-21T19:03:27.640Z,85.96
2019-02-21T19:05:36.519Z,85.22
2019-02-21T19:07:44.579Z,85.47
2019-02-21T19:09:52.648Z,85.66
2019-02-21T19:12:00.498Z,84.96
2019-02-21T19:14:08.402Z,84.36
2019-02-21T19:16:16.157Z,84.02
2019-02-21T19:18:24.395Z,84.58
2019-02-21T19:20:32.873Z,84.61
2019-02-21T19:22:41.294Z,84.27
2019-02-21T19:24:49.839Z,85.57
2019-02-21T19:26:57.679Z,85.70
2019-02-21T19:29:05.844Z,84.91
2019-02-21T19:31:17.883Z,85.24
2019-02-21T19:33:25.867Z,84.85
2019-02-21T19:35:34.054Z,85.71
2019-02-21T19:37:42.171Z,85.60
2019-02-21T19:39:50.503Z,84.29
2019-02-21T19:41:59.861Z,84.54
2019-02-21T19:44:09.283Z,84.43
2019-02-21T19:46:17.581Z,84.12
2019-02-21T19:48:25.464Z,84.34
2019-02-21T19:50:33.546Z,84.79
2019-02-21T19:52:41.628Z,85.03
2019-02-21T19:54:49.886Z,84.67
2019-02-21T19:56:57.914Z,85.04
2019-02-21T19:59:05.789Z,85.28
2019-02-21T20:01:13.993Z,84.54
2019-02-21T20:03:21.986Z,85.25
2019-02-21T20:05:30.212Z,84.86
2019-02-21T20:07:38.258Z,85.46
2019-02-21T20:09:46.212Z,85.63
2019-02-21T20:11:54.171Z,85.30
2019-02-21T20:14:02.337Z,84.86
2019-02-21T20:16:10.264Z,85.18
2019-02-21T20:18:18.334Z,85.70
2019-02-21T20:20:27.882Z,85.28
2019-02-21T20:22:36.243Z,85.54
2019-02-21T20:24:44.304Z,85.31
2019-02-21T20:26:52.332Z,85.06
2019-02-21T20:29:00.623Z,85.23
2019-02-21T20:31:08.648Z,85.36
2019-02-21T20:33:18.024Z,85.90
2019-02-21T20:35:25.735Z,84.29
2019-02-21T20:37:38.276Z,84.98
2019-02-21T20:39:46.272Z,84.96
2019-02-21T20:41:54.263Z,84.81
2019-02-21T20:44:03.387Z,85.26
2019-02-21T20:46:11.326Z,84.33
2019-02-21T20:48:19.137Z,83.97
2019-02-21T20:50:28.376Z,83.46
2019-02-21T20:52:36.254Z,83.82
2019-02-21T20:54:44.328Z,82.90
2019-02-21T20:56:52.175Z,84.00
2019-02-21T20:59:00.191Z,84.07
2019-02-21T21:01:08.315Z,84.32
2019-02-21T21:03:16.548Z,84.87
2019-02-21T21:05:24.395Z,84.62
2019-02-21T21:07:33.289Z,84.18
2019-02-21T21:09:41.551Z,84.84
2019-02-21T21:11:49.369Z,84.45
2019-02-21T21:13:57.060Z,84.64
2019-02-21T21:16:05.086Z,83.90
2019-02-21T21:18:13.046Z,84.18
2019-02-21T21:20:21.030Z,84.56
2019-02-21T21:22:28.804Z,84.44
2019-02-21T21:24:36.498Z,84.14
2019-02-21T21:26:44.444Z,84.05
2019-02-21T21:28:53.580Z,84.43
2019-02-21T21:31:01.576Z,84.49
2019-02-21T21:33:09.424Z,84.06
2019-02-21T21:35:17.301Z,84.17
2019-02-21T21:37:25.298Z,84.01
2019-02-21T21:39:33.387Z,84.12
2019-02-21T21:41:41.286Z,84.49
2019-02-21T21:43:50.767Z,83.71
2019-02-21T21:45:58.892Z,83.58
2019-02-21T21:48:09.774Z,83.71
2019-02-21T21:50:18.802Z,84.33
2019-02-21T21:52:26.788Z,83.26
2019-02-21T21:54:35.078Z,83.20
2019-02-21T21:56:43.309Z,83.29
2019-02-21T21:58:51.030Z,83.95
2019-02-21T22:01:00.952Z,83.28
2019-02-21T22:03:08.909Z,83.46
2019-02-21T22:05:16.842Z,83.38
2019-02-21T22:07:24.664Z,83.26
2019-02-21T22:09:33.148Z,83.51
2019-02-21T22:11:40.918Z,81.63
2019-02-21T22:13:48.697Z,82.83
2019-02-21T22:15:56.831Z,82.92
2019-02-21T22:18:04.887Z,80.98
2019-02-21T22:20:13.451Z,82.32
2019-02-21T22:22:21.183Z,81.99
2019-02-21T22:24:28.959Z,83.27
2019-02-21T22:26:37.195Z,83.11
2019-02-21T22:28:45.591Z,82.48
2019-02-21T22:30:53.366Z,82.59
2019-02-21T22:33:01.169Z,83.04
2019-02-21T22:35:09.070Z,83.14
2019-02-21T22:37:17.184Z,83.55
2019-02-21T22:39:24.940Z,83.66
2019-02-21T22:41:32.645Z,83.48
2019-02-21T22:43:40.433Z,83.20
2019-02-21T22:45:48.385Z,83.15
2019-02-21T22:47:55.988Z,83.27
2019-02-21T22:50:06.201Z,83.21
2019-02-21T22:52:14.061Z,83.69
2019-02-21T22:54:21.982Z,83.95
2019-02-21T22:56:29.911Z,83.66
2019-02-21T22:58:44.799Z,83.13
2019-02-21T23:01:28.968Z,83.27
2019-02-21T23:04:14.323Z,83.53
2019-02-21T23:07:18.891Z,84.06
2019-02-21T23:09:28.216Z,83.78
2019-02-21T23:11:36.247Z,83.54
2019-02-21T23:13:44.506Z,82.96
2019-02-21T23:15:52.231Z,82.98
2019-02-21T23:18:00.029Z,83.37
2019-02-21T23:20:09.694Z,83.68
2019-02-21T23:22:17.659Z,83.55
2019-02-21T23:24:25.581Z,82.92
2019-02-21T23:26:33.272Z,83.35
2019-02-21T23:28:40.912Z,82.31
2019-02-21T23:30:48.783Z,82.68
2019-02-21T23:32:56.434Z,82.13
2019-02-21T23:35:04.236Z,81.55
2019-02-21T23:37:12.064Z,81.19
2019-02-21T23:39:19.870Z,81.38
2019-02-21T23:41:27.501Z,81.78
2019-02-21T23:43:35.285Z,82.56
2019-02-21T23:45:43.136Z,83.24
2019-02-21T23:47:51.089Z,83.73
2019-02-21T23:49:58.910Z,81.91
2019-02-21T23:52:06.847Z,82.08
2019-02-21T23:54:14.578Z,83.09
2019-02-21T23:56:22.537Z,81.74
2019-02-21T23:58:30.348Z,80.85
